sensor_id;sensor_type;location;lat;lon;timestamp;P1;durP1;ratioP1;P2;durP2;ratioP2
9102;SDS011;4587;51.434;6.788;2023-02-13T00:00:05;11.37;;;9.37;;
9102;SDS011;4587;51.434;6.788;2023-02-13T00:02:33;10.23;;;9.00;;
9102;SDS011;4587;51.434;6.788;2023-02-13T00:04:59;10.40;;;8.70;;
9102;SDS011;4587;51.434;6.788;2023-02-13T00:07:24;10.77;;;9.23;;
9102;SDS011;4587;51.434;6.788;2023-02-13T00:09:50;10.03;;;8.90;;
9102;SDS011;4587;51.434;6.788;2023-02-13T00:12:15;10.23;;;9.13;;
9102;SDS011;4587;51.434;6.788;2023-02-13T00:14:41;10.10;;;9.10;;
9102;SDS011;4587;51.434;6.788;2023-02-13T00:17:06;11.57;;;9.73;;
9102;SDS011;4587;51.434;6.788;2023-02-13T00:19:32;11.97;;;9.47;;
9102;SDS011;4587;51.434;6.788;2023-02-13T00:21:58;11.10;;;9.63;;
9102;SDS011;4587;51.434;6.788;2023-02-13T00:24:23;11.67;;;9.90;;
9102;SDS011;4587;51.434;6.788;2023-02-13T00:26:49;10.63;;;9.40;;
9102;SDS011;4587;51.434;6.788;2023-02-13T00:29:14;10.70;;;9.60;;
9102;SDS011;4587;51.434;6.788;2023-02-13T00:31:40;11.67;;;9.93;;
9102;SDS011;4587;51.434;6.788;2023-02-13T00:34:06;12.70;;;10.20;;
9102;SDS011;4587;51.434;6.788;2023-02-13T00:36:32;11.50;;;10.10;;
9102;SDS011;4587;51.434;6.788;2023-02-13T00:38:57;11.93;;;10.67;;
9102;SDS011;4587;51.434;6.788;2023-02-13T00:41:23;13.20;;;10.37;;
9102;SDS011;4587;51.434;6.788;2023-02-13T00:43:48;12.60;;;9.90;;
9102;SDS011;4587;51.434;6.788;2023-02-13T00:46:15;11.07;;;9.63;;
9102;SDS011;4587;51.434;6.788;2023-02-13T00:48:41;12.10;;;10.20;;
9102;SDS011;4587;51.434;6.788;2023-02-13T00:51:07;12.87;;;10.60;;
9102;SDS011;4587;51.434;6.788;2023-02-13T00:53:33;13.13;;;10.80;;
9102;SDS011;4587;51.434;6.788;2023-02-13T00:56:00;11.10;;;9.90;;
9102;SDS011;4587;51.434;6.788;2023-02-13T00:58:26;13.10;;;10.30;;
9102;SDS011;4587;51.434;6.788;2023-02-13T01:00:52;12.97;;;10.60;;
9102;SDS011;4587;51.434;6.788;2023-02-13T01:03:19;11.47;;;10.27;;
9102;SDS011;4587;51.434;6.788;2023-02-13T01:05:45;13.10;;;9.57;;
9102;SDS011;4587;51.434;6.788;2023-02-13T01:08:11;11.37;;;9.40;;
9102;SDS011;4587;51.434;6.788;2023-02-13T01:10:38;10.47;;;9.10;;
9102;SDS011;4587;51.434;6.788;2023-02-13T01:13:05;10.00;;;8.40;;
9102;SDS011;4587;51.434;6.788;2023-02-13T01:15:31;9.40;;;8.17;;
9102;SDS011;4587;51.434;6.788;2023-02-13T01:17:57;9.13;;;7.47;;
9102;SDS011;4587;51.434;6.788;2023-02-13T01:20:23;11.07;;;7.60;;
9102;SDS011;4587;51.434;6.788;2023-02-13T01:22:49;10.57;;;8.07;;
9102;SDS011;4587;51.434;6.788;2023-02-13T01:25:15;9.47;;;7.90;;
9102;SDS011;4587;51.434;6.788;2023-02-13T01:27:41;9.13;;;7.60;;
9102;SDS011;4587;51.434;6.788;2023-02-13T01:30:07;8.80;;;7.27;;
9102;SDS011;4587;51.434;6.788;2023-02-13T01:32:37;8.50;;;7.07;;
9102;SDS011;4587;51.434;6.788;2023-02-13T01:35:05;8.77;;;7.47;;
9102;SDS011;4587;51.434;6.788;2023-02-13T01:37:32;9.57;;;7.43;;
9102;SDS011;4587;51.434;6.788;2023-02-13T01:39:57;10.03;;;7.80;;
9102;SDS011;4587;51.434;6.788;2023-02-13T01:42:24;8.20;;;6.97;;
9102;SDS011;4587;51.434;6.788;2023-02-13T01:44:55;8.63;;;7.50;;
9102;SDS011;4587;51.434;6.788;2023-02-13T01:50:11;9.77;;;8.20;;
9102;SDS011;4587;51.434;6.788;2023-02-13T01:52:42;10.43;;;8.43;;
9102;SDS011;4587;51.434;6.788;2023-02-13T01:55:11;9.33;;;8.27;;
9102;SDS011;4587;51.434;6.788;2023-02-13T01:57:38;10.43;;;8.30;;
9102;SDS011;4587;51.434;6.788;2023-02-13T02:00:07;10.00;;;8.80;;
9102;SDS011;4587;51.434;6.788;2023-02-13T02:02:38;10.57;;;8.67;;
9102;SDS011;4587;51.434;6.788;2023-02-13T02:05:08;9.43;;;8.30;;
9102;SDS011;4587;51.434;6.788;2023-02-13T02:07:35;10.73;;;8.37;;
9102;SDS011;4587;51.434;6.788;2023-02-13T02:10:04;9.93;;;8.73;;
9102;SDS011;4587;51.434;6.788;2023-02-13T02:12:41;10.23;;;9.10;;
9102;SDS011;4587;51.434;6.788;2023-02-13T02:15:13;10.63;;;9.07;;
9102;SDS011;4587;51.434;6.788;2023-02-13T02:17:40;11.27;;;9.67;;
9102;SDS011;4587;51.434;6.788;2023-02-13T02:26:14;10.40;;;8.57;;
9102;SDS011;4587;51.434;6.788;2023-02-13T02:32:01;10.13;;;8.80;;
9102;SDS011;4587;51.434;6.788;2023-02-13T02:43:03;10.20;;;8.60;;
9102;SDS011;4587;51.434;6.788;2023-02-13T02:49:03;11.10;;;9.27;;
9102;SDS011;4587;51.434;6.788;2023-02-13T02:52:03;10.90;;;9.00;;
9102;SDS011;4587;51.434;6.788;2023-02-13T02:54:35;11.37;;;9.13;;
9102;SDS011;4587;51.434;6.788;2023-02-13T02:57:27;11.93;;;9.30;;
9102;SDS011;4587;51.434;6.788;2023-02-13T03:00:19;12.50;;;8.90;;
9102;SDS011;4587;51.434;6.788;2023-02-13T03:03:21;11.33;;;8.50;;
9102;SDS011;4587;51.434;6.788;2023-02-13T03:06:16;10.30;;;8.33;;
9102;SDS011;4587;51.434;6.788;2023-02-13T03:08:52;10.37;;;8.27;;
9102;SDS011;4587;51.434;6.788;2023-02-13T03:11:41;10.87;;;8.67;;
9102;SDS011;4587;51.434;6.788;2023-02-13T03:14:27;9.00;;;7.90;;
9102;SDS011;4587;51.434;6.788;2023-02-13T03:16:53;9.63;;;8.07;;
9102;SDS011;4587;51.434;6.788;2023-02-13T03:23:16;11.23;;;7.90;;
9102;SDS011;4587;51.434;6.788;2023-02-13T03:28:35;9.03;;;7.30;;
9102;SDS011;4587;51.434;6.788;2023-02-13T03:31:31;8.67;;;7.53;;
9102;SDS011;4587;51.434;6.788;2023-02-13T03:34:09;9.40;;;7.07;;
9102;SDS011;4587;51.434;6.788;2023-02-13T03:36:56;7.63;;;6.73;;
9102;SDS011;4587;51.434;6.788;2023-02-13T03:42:40;9.13;;;6.77;;
9102;SDS011;4587;51.434;6.788;2023-02-13T03:45:24;8.03;;;6.53;;
9102;SDS011;4587;51.434;6.788;2023-02-13T03:48:13;8.57;;;6.63;;
9102;SDS011;4587;51.434;6.788;2023-02-13T03:51:01;8.23;;;6.73;;
9102;SDS011;4587;51.434;6.788;2023-02-13T03:53:28;7.93;;;6.53;;
9102;SDS011;4587;51.434;6.788;2023-02-13T03:55:57;7.53;;;6.10;;
9102;SDS011;4587;51.434;6.788;2023-02-13T03:58:49;7.87;;;6.03;;
9102;SDS011;4587;51.434;6.788;2023-02-13T04:01:37;7.73;;;6.20;;
9102;SDS011;4587;51.434;6.788;2023-02-13T04:06:58;7.70;;;6.70;;
9102;SDS011;4587;51.434;6.788;2023-02-13T04:09:29;8.70;;;6.40;;
9102;SDS011;4587;51.434;6.788;2023-02-13T04:12:19;7.90;;;6.47;;
9102;SDS011;4587;51.434;6.788;2023-02-13T04:14:47;8.50;;;6.57;;
9102;SDS011;4587;51.434;6.788;2023-02-13T04:17:32;9.20;;;6.73;;
9102;SDS011;4587;51.434;6.788;2023-02-13T04:20:09;7.23;;;6.43;;
9102;SDS011;4587;51.434;6.788;2023-02-13T04:22:46;8.10;;;6.93;;
9102;SDS011;4587;51.434;6.788;2023-02-13T04:25:13;8.60;;;6.33;;
9102;SDS011;4587;51.434;6.788;2023-02-13T04:27:41;7.90;;;6.70;;
9102;SDS011;4587;51.434;6.788;2023-02-13T04:30:07;7.90;;;7.10;;
9102;SDS011;4587;51.434;6.788;2023-02-13T04:32:33;8.93;;;6.60;;
9102;SDS011;4587;51.434;6.788;2023-02-13T04:34:59;8.03;;;6.83;;
9102;SDS011;4587;51.434;6.788;2023-02-13T04:37:24;9.13;;;7.13;;
9102;SDS011;4587;51.434;6.788;2023-02-13T04:39:50;9.23;;;7.57;;
9102;SDS011;4587;51.434;6.788;2023-02-13T04:42:15;8.37;;;7.13;;
9102;SDS011;4587;51.434;6.788;2023-02-13T04:44:41;8.40;;;6.80;;
9102;SDS011;4587;51.434;6.788;2023-02-13T04:47:07;8.57;;;6.90;;
9102;SDS011;4587;51.434;6.788;2023-02-13T04:49:32;8.90;;;7.50;;
9102;SDS011;4587;51.434;6.788;2023-02-13T04:51:58;8.83;;;7.40;;
9102;SDS011;4587;51.434;6.788;2023-02-13T04:54:23;9.27;;;7.33;;
9102;SDS011;4587;51.434;6.788;2023-02-13T04:56:49;8.00;;;6.80;;
9102;SDS011;4587;51.434;6.788;2023-02-13T04:59:14;10.70;;;7.33;;
9102;SDS011;4587;51.434;6.788;2023-02-13T05:01:40;9.43;;;8.00;;
9102;SDS011;4587;51.434;6.788;2023-02-13T05:04:05;8.80;;;7.37;;
9102;SDS011;4587;51.434;6.788;2023-02-13T05:06:31;9.00;;;7.57;;
9102;SDS011;4587;51.434;6.788;2023-02-13T05:08:56;10.17;;;8.47;;
9102;SDS011;4587;51.434;6.788;2023-02-13T05:11:22;9.10;;;7.70;;
9102;SDS011;4587;51.434;6.788;2023-02-13T05:13:47;8.47;;;7.53;;
9102;SDS011;4587;51.434;6.788;2023-02-13T05:16:13;9.27;;;8.27;;
9102;SDS011;4587;51.434;6.788;2023-02-13T05:18:38;10.10;;;8.47;;
9102;SDS011;4587;51.434;6.788;2023-02-13T05:21:07;10.17;;;7.77;;
9102;SDS011;4587;51.434;6.788;2023-02-13T05:23:51;13.40;;;8.43;;
9102;SDS011;4587;51.434;6.788;2023-02-13T05:26:17;10.73;;;8.13;;
9102;SDS011;4587;51.434;6.788;2023-02-13T05:28:42;9.10;;;7.90;;
9102;SDS011;4587;51.434;6.788;2023-02-13T05:31:27;10.70;;;8.53;;
9102;SDS011;4587;51.434;6.788;2023-02-13T05:33:52;9.40;;;8.10;;
9102;SDS011;4587;51.434;6.788;2023-02-13T05:36:18;9.73;;;8.60;;
9102;SDS011;4587;51.434;6.788;2023-02-13T05:38:43;9.97;;;8.87;;
9102;SDS011;4587;51.434;6.788;2023-02-13T05:41:09;10.67;;;9.57;;
9102;SDS011;4587;51.434;6.788;2023-02-13T05:43:37;9.63;;;8.57;;
9102;SDS011;4587;51.434;6.788;2023-02-13T05:46:04;9.83;;;8.57;;
9102;SDS011;4587;51.434;6.788;2023-02-13T05:48:30;9.80;;;8.30;;
9102;SDS011;4587;51.434;6.788;2023-02-13T05:50:56;10.33;;;8.97;;
9102;SDS011;4587;51.434;6.788;2023-02-13T05:53:22;13.70;;;9.93;;
9102;SDS011;4587;51.434;6.788;2023-02-13T05:55:48;11.70;;;9.07;;
9102;SDS011;4587;51.434;6.788;2023-02-13T05:58:16;11.47;;;9.80;;
9102;SDS011;4587;51.434;6.788;2023-02-13T06:00:42;10.30;;;9.10;;
9102;SDS011;4587;51.434;6.788;2023-02-13T06:03:08;10.13;;;8.93;;
9102;SDS011;4587;51.434;6.788;2023-02-13T06:05:33;11.37;;;9.50;;
9102;SDS011;4587;51.434;6.788;2023-02-13T06:07:59;12.73;;;9.47;;
9102;SDS011;4587;51.434;6.788;2023-02-13T06:10:24;11.70;;;9.90;;
9102;SDS011;4587;51.434;6.788;2023-02-13T06:12:50;11.97;;;9.60;;
9102;SDS011;4587;51.434;6.788;2023-02-13T06:15:15;11.50;;;9.93;;
9102;SDS011;4587;51.434;6.788;2023-02-13T06:17:41;10.60;;;9.40;;
9102;SDS011;4587;51.434;6.788;2023-02-13T06:20:07;11.13;;;9.77;;
9102;SDS011;4587;51.434;6.788;2023-02-13T06:22:33;12.23;;;10.10;;
9102;SDS011;4587;51.434;6.788;2023-02-13T06:24:58;13.47;;;9.87;;
9102;SDS011;4587;51.434;6.788;2023-02-13T06:27:24;11.47;;;9.67;;
9102;SDS011;4587;51.434;6.788;2023-02-13T06:29:49;13.43;;;10.37;;
9102;SDS011;4587;51.434;6.788;2023-02-13T06:32:15;10.87;;;9.13;;
9102;SDS011;4587;51.434;6.788;2023-02-13T06:34:40;12.17;;;10.40;;
9102;SDS011;4587;51.434;6.788;2023-02-13T06:37:06;13.77;;;10.70;;
9102;SDS011;4587;51.434;6.788;2023-02-13T06:39:31;12.60;;;10.40;;
9102;SDS011;4587;51.434;6.788;2023-02-13T06:41:57;12.20;;;10.57;;
9102;SDS011;4587;51.434;6.788;2023-02-13T06:44:22;11.47;;;10.27;;
9102;SDS011;4587;51.434;6.788;2023-02-13T06:46:48;12.83;;;10.73;;
9102;SDS011;4587;51.434;6.788;2023-02-13T06:49:14;12.53;;;10.33;;
9102;SDS011;4587;51.434;6.788;2023-02-13T06:51:39;12.53;;;10.93;;
9102;SDS011;4587;51.434;6.788;2023-02-13T06:54:05;13.70;;;11.33;;
9102;SDS011;4587;51.434;6.788;2023-02-13T06:56:30;12.30;;;11.00;;
9102;SDS011;4587;51.434;6.788;2023-02-13T06:58:56;15.87;;;11.03;;
9102;SDS011;4587;51.434;6.788;2023-02-13T07:01:22;14.40;;;11.37;;
9102;SDS011;4587;51.434;6.788;2023-02-13T07:03:47;14.37;;;11.17;;
9102;SDS011;4587;51.434;6.788;2023-02-13T07:06:19;13.87;;;10.90;;
9102;SDS011;4587;51.434;6.788;2023-02-13T07:08:45;14.63;;;11.70;;
9102;SDS011;4587;51.434;6.788;2023-02-13T07:11:18;13.47;;;11.53;;
9102;SDS011;4587;51.434;6.788;2023-02-13T07:13:44;14.40;;;11.73;;
9102;SDS011;4587;51.434;6.788;2023-02-13T07:16:10;12.93;;;11.57;;
9102;SDS011;4587;51.434;6.788;2023-02-13T07:18:36;15.07;;;12.00;;
9102;SDS011;4587;51.434;6.788;2023-02-13T07:21:01;12.17;;;10.40;;
9102;SDS011;4587;51.434;6.788;2023-02-13T07:23:27;14.00;;;11.87;;
9102;SDS011;4587;51.434;6.788;2023-02-13T07:25:53;12.80;;;11.30;;
9102;SDS011;4587;51.434;6.788;2023-02-13T07:28:18;15.93;;;12.27;;
9102;SDS011;4587;51.434;6.788;2023-02-13T07:30:44;14.30;;;11.33;;
9102;SDS011;4587;51.434;6.788;2023-02-13T07:33:09;13.50;;;11.73;;
9102;SDS011;4587;51.434;6.788;2023-02-13T07:35:35;13.67;;;11.83;;
9102;SDS011;4587;51.434;6.788;2023-02-13T07:38:03;18.10;;;12.50;;
9102;SDS011;4587;51.434;6.788;2023-02-13T07:40:28;15.53;;;12.10;;
9102;SDS011;4587;51.434;6.788;2023-02-13T07:42:54;13.40;;;12.00;;
9102;SDS011;4587;51.434;6.788;2023-02-13T07:45:23;13.00;;;11.00;;
9102;SDS011;4587;51.434;6.788;2023-02-13T07:47:49;14.30;;;10.70;;
9102;SDS011;4587;51.434;6.788;2023-02-13T07:50:14;13.73;;;11.43;;
9102;SDS011;4587;51.434;6.788;2023-02-13T07:52:40;12.77;;;11.03;;
9102;SDS011;4587;51.434;6.788;2023-02-13T07:55:05;12.30;;;10.87;;
9102;SDS011;4587;51.434;6.788;2023-02-13T07:57:32;12.40;;;10.97;;
9102;SDS011;4587;51.434;6.788;2023-02-13T07:59:57;13.40;;;11.23;;
9102;SDS011;4587;51.434;6.788;2023-02-13T08:02:23;13.37;;;10.90;;
9102;SDS011;4587;51.434;6.788;2023-02-13T08:04:49;12.30;;;11.00;;
9102;SDS011;4587;51.434;6.788;2023-02-13T08:07:15;13.87;;;11.60;;
9102;SDS011;4587;51.434;6.788;2023-02-13T08:09:43;12.60;;;11.30;;
9102;SDS011;4587;51.434;6.788;2023-02-13T08:12:27;11.57;;;10.37;;
9102;SDS011;4587;51.434;6.788;2023-02-13T08:14:54;11.87;;;10.67;;
9102;SDS011;4587;51.434;6.788;2023-02-13T08:17:19;12.13;;;10.93;;
9102;SDS011;4587;51.434;6.788;2023-02-13T08:19:45;11.93;;;10.73;;
9102;SDS011;4587;51.434;6.788;2023-02-13T08:22:10;11.87;;;10.67;;
9102;SDS011;4587;51.434;6.788;2023-02-13T08:24:36;12.27;;;10.87;;
9102;SDS011;4587;51.434;6.788;2023-02-13T08:27:01;11.30;;;10.10;;
9102;SDS011;4587;51.434;6.788;2023-02-13T08:29:27;10.80;;;9.70;;
9102;SDS011;4587;51.434;6.788;2023-02-13T08:31:52;11.57;;;10.37;;
9102;SDS011;4587;51.434;6.788;2023-02-13T08:34:18;11.53;;;10.17;;
9102;SDS011;4587;51.434;6.788;2023-02-13T08:36:43;10.90;;;9.90;;
9102;SDS011;4587;51.434;6.788;2023-02-13T08:39:09;11.53;;;10.17;;
9102;SDS011;4587;51.434;6.788;2023-02-13T08:41:35;11.13;;;10.03;;
9102;SDS011;4587;51.434;6.788;2023-02-13T08:44:00;11.53;;;10.10;;
9102;SDS011;4587;51.434;6.788;2023-02-13T08:46:26;10.77;;;9.67;;
9102;SDS011;4587;51.434;6.788;2023-02-13T08:48:51;11.30;;;9.63;;
9102;SDS011;4587;51.434;6.788;2023-02-13T08:51:17;10.90;;;9.87;;
9102;SDS011;4587;51.434;6.788;2023-02-13T08:53:42;11.77;;;10.13;;
9102;SDS011;4587;51.434;6.788;2023-02-13T08:56:08;10.67;;;9.67;;
9102;SDS011;4587;51.434;6.788;2023-02-13T08:58:34;10.43;;;9.37;;
9102;SDS011;4587;51.434;6.788;2023-02-13T09:01:02;10.37;;;9.23;;
9102;SDS011;4587;51.434;6.788;2023-02-13T09:03:29;10.03;;;8.83;;
9102;SDS011;4587;51.434;6.788;2023-02-13T09:05:57;11.43;;;9.00;;
9102;SDS011;4587;51.434;6.788;2023-02-13T09:08:24;9.77;;;8.77;;
9102;SDS011;4587;51.434;6.788;2023-02-13T09:10:54;10.70;;;9.60;;
9102;SDS011;4587;51.434;6.788;2023-02-13T09:13:20;9.57;;;8.67;;
9102;SDS011;4587;51.434;6.788;2023-02-13T09:15:46;10.40;;;9.13;;
9102;SDS011;4587;51.434;6.788;2023-02-13T09:18:11;10.40;;;9.30;;
9102;SDS011;4587;51.434;6.788;2023-02-13T09:20:37;10.30;;;9.07;;
9102;SDS011;4587;51.434;6.788;2023-02-13T09:23:02;9.93;;;8.93;;
9102;SDS011;4587;51.434;6.788;2023-02-13T09:25:28;10.00;;;8.97;;
9102;SDS011;4587;51.434;6.788;2023-02-13T09:27:54;10.87;;;8.53;;
9102;SDS011;4587;51.434;6.788;2023-02-13T09:30:19;9.57;;;8.50;;
9102;SDS011;4587;51.434;6.788;2023-02-13T09:32:48;9.53;;;8.40;;
9102;SDS011;4587;51.434;6.788;2023-02-13T09:35:15;9.43;;;8.10;;
9102;SDS011;4587;51.434;6.788;2023-02-13T09:37:41;9.43;;;8.37;;
9102;SDS011;4587;51.434;6.788;2023-02-13T09:40:15;9.73;;;8.73;;
9102;SDS011;4587;51.434;6.788;2023-02-13T09:42:44;9.00;;;8.10;;
9102;SDS011;4587;51.434;6.788;2023-02-13T09:45:11;10.17;;;8.43;;
9102;SDS011;4587;51.434;6.788;2023-02-13T09:47:40;9.27;;;8.27;;
9102;SDS011;4587;51.434;6.788;2023-02-13T09:52:42;10.33;;;8.23;;
9102;SDS011;4587;51.434;6.788;2023-02-13T09:55:16;9.00;;;8.10;;
9102;SDS011;4587;51.434;6.788;2023-02-13T09:57:51;10.40;;;8.33;;
9102;SDS011;4587;51.434;6.788;2023-02-13T10:10:34;9.43;;;8.07;;
9102;SDS011;4587;51.434;6.788;2023-02-13T10:13:15;9.30;;;8.30;;
9102;SDS011;4587;51.434;6.788;2023-02-13T10:15:50;10.17;;;8.30;;
9102;SDS011;4587;51.434;6.788;2023-02-13T10:18:29;9.43;;;8.13;;
9102;SDS011;4587;51.434;6.788;2023-02-13T10:21:11;10.03;;;8.53;;
9102;SDS011;4587;51.434;6.788;2023-02-13T10:23:46;12.00;;;8.07;;
9102;SDS011;4587;51.434;6.788;2023-02-13T10:26:18;9.47;;;7.67;;
9102;SDS011;4587;51.434;6.788;2023-02-13T10:31:45;8.70;;;7.80;;
9102;SDS011;4587;51.434;6.788;2023-02-13T10:34:15;8.77;;;7.57;;
9102;SDS011;4587;51.434;6.788;2023-02-13T10:36:45;8.63;;;7.73;;
9102;SDS011;4587;51.434;6.788;2023-02-13T10:41:55;8.30;;;6.63;;
9102;SDS011;4587;51.434;6.788;2023-02-13T10:47:23;8.97;;;7.77;;
9102;SDS011;4587;51.434;6.788;2023-02-13T10:50:12;9.43;;;8.23;;
9102;SDS011;4587;51.434;6.788;2023-02-13T11:01:12;7.77;;;6.97;;
9102;SDS011;4587;51.434;6.788;2023-02-13T11:03:46;8.63;;;7.73;;
9102;SDS011;4587;51.434;6.788;2023-02-13T11:06:23;8.50;;;7.27;;
9102;SDS011;4587;51.434;6.788;2023-02-13T11:08:49;9.83;;;6.60;;
9102;SDS011;4587;51.434;6.788;2023-02-13T11:11:31;7.43;;;6.63;;
9102;SDS011;4587;51.434;6.788;2023-02-13T11:14:20;7.80;;;7.00;;
9102;SDS011;4587;51.434;6.788;2023-02-13T11:16:50;7.80;;;7.00;;
9102;SDS011;4587;51.434;6.788;2023-02-13T11:24:35;8.80;;;7.00;;
9102;SDS011;4587;51.434;6.788;2023-02-13T11:27:06;6.83;;;6.13;;
9102;SDS011;4587;51.434;6.788;2023-02-13T11:29:37;7.40;;;6.67;;
9102;SDS011;4587;51.434;6.788;2023-02-13T11:32:26;8.20;;;6.20;;
9102;SDS011;4587;51.434;6.788;2023-02-13T11:34:56;8.00;;;6.77;;
9102;SDS011;4587;51.434;6.788;2023-02-13T11:37:30;6.80;;;6.10;;
9102;SDS011;4587;51.434;6.788;2023-02-13T11:39:57;8.87;;;6.53;;
9102;SDS011;4587;51.434;6.788;2023-02-13T11:42:31;7.97;;;7.17;;
9102;SDS011;4587;51.434;6.788;2023-02-13T11:45:00;7.37;;;6.67;;
9102;SDS011;4587;51.434;6.788;2023-02-13T11:47:45;9.70;;;7.10;;
9102;SDS011;4587;51.434;6.788;2023-02-13T11:50:21;9.57;;;6.67;;
9102;SDS011;4587;51.434;6.788;2023-02-13T11:52:51;7.47;;;6.17;;
9102;SDS011;4587;51.434;6.788;2023-02-13T11:55:36;7.20;;;6.50;;
9102;SDS011;4587;51.434;6.788;2023-02-13T12:00:35;7.33;;;6.63;;
9102;SDS011;4587;51.434;6.788;2023-02-13T12:08:27;7.77;;;6.53;;
9102;SDS011;4587;51.434;6.788;2023-02-13T12:10:53;7.17;;;6.40;;
9102;SDS011;4587;51.434;6.788;2023-02-13T12:13:24;7.67;;;6.43;;
9102;SDS011;4587;51.434;6.788;2023-02-13T12:16:01;9.07;;;7.20;;
9102;SDS011;4587;51.434;6.788;2023-02-13T12:18:31;7.77;;;6.50;;
9102;SDS011;4587;51.434;6.788;2023-02-13T12:32:19;7.77;;;6.60;;
9102;SDS011;4587;51.434;6.788;2023-02-13T12:35:03;8.40;;;6.90;;
9102;SDS011;4587;51.434;6.788;2023-02-13T12:46:53;7.50;;;6.70;;
9102;SDS011;4587;51.434;6.788;2023-02-13T12:49:39;7.87;;;6.93;;
9102;SDS011;4587;51.434;6.788;2023-02-13T12:57:57;8.03;;;6.60;;
9102;SDS011;4587;51.434;6.788;2023-02-13T13:03:20;7.53;;;5.77;;
9102;SDS011;4587;51.434;6.788;2023-02-13T13:06:36;8.53;;;5.80;;
9102;SDS011;4587;51.434;6.788;2023-02-13T13:23:17;6.20;;;5.47;;
9102;SDS011;4587;51.434;6.788;2023-02-13T13:28:48;7.40;;;5.53;;
9102;SDS011;4587;51.434;6.788;2023-02-13T13:31:18;7.27;;;5.13;;
9102;SDS011;4587;51.434;6.788;2023-02-13T13:33:45;7.57;;;5.00;;
9102;SDS011;4587;51.434;6.788;2023-02-13T13:41:29;5.97;;;5.17;;
9102;SDS011;4587;51.434;6.788;2023-02-13T13:44:17;6.10;;;4.87;;
9102;SDS011;4587;51.434;6.788;2023-02-13T13:49:56;6.97;;;4.37;;
9102;SDS011;4587;51.434;6.788;2023-02-13T13:54:51;6.10;;;4.10;;
9102;SDS011;4587;51.434;6.788;2023-02-13T13:57:21;4.43;;;4.03;;
9102;SDS011;4587;51.434;6.788;2023-02-13T14:02:39;5.33;;;3.87;;
9102;SDS011;4587;51.434;6.788;2023-02-13T14:05:21;5.37;;;3.80;;
9102;SDS011;4587;51.434;6.788;2023-02-13T14:08:02;4.67;;;3.57;;
9102;SDS011;4587;51.434;6.788;2023-02-13T14:13:27;4.50;;;4.10;;
9102;SDS011;4587;51.434;6.788;2023-02-13T14:15:57;5.50;;;4.00;;
9102;SDS011;4587;51.434;6.788;2023-02-13T14:18:24;5.47;;;4.17;;
9102;SDS011;4587;51.434;6.788;2023-02-13T14:20:54;5.60;;;3.80;;
9102;SDS011;4587;51.434;6.788;2023-02-13T14:23:31;4.23;;;3.83;;
9102;SDS011;4587;51.434;6.788;2023-02-13T14:34:19;6.30;;;3.60;;
9102;SDS011;4587;51.434;6.788;2023-02-13T14:37:01;5.43;;;3.77;;
9102;SDS011;4587;51.434;6.788;2023-02-13T14:39:37;5.40;;;3.50;;
9102;SDS011;4587;51.434;6.788;2023-02-13T14:42:22;4.17;;;3.23;;
9102;SDS011;4587;51.434;6.788;2023-02-13T14:44:52;3.90;;;3.50;;
9102;SDS011;4587;51.434;6.788;2023-02-13T14:47:23;4.33;;;3.40;;
9102;SDS011;4587;51.434;6.788;2023-02-13T14:50:05;5.60;;;3.07;;
9102;SDS011;4587;51.434;6.788;2023-02-13T14:52:33;4.00;;;3.00;;
9102;SDS011;4587;51.434;6.788;2023-02-13T14:55:13;4.70;;;3.20;;
9102;SDS011;4587;51.434;6.788;2023-02-13T14:57:42;5.43;;;3.07;;
9102;SDS011;4587;51.434;6.788;2023-02-13T15:00:22;3.87;;;2.67;;
9102;SDS011;4587;51.434;6.788;2023-02-13T15:02:55;3.50;;;2.83;;
9102;SDS011;4587;51.434;6.788;2023-02-13T15:05:29;4.77;;;3.27;;
9102;SDS011;4587;51.434;6.788;2023-02-13T15:13:14;4.37;;;2.73;;
9102;SDS011;4587;51.434;6.788;2023-02-13T15:15:42;5.57;;;2.77;;
9102;SDS011;4587;51.434;6.788;2023-02-13T15:18:30;3.90;;;2.53;;
9102;SDS011;4587;51.434;6.788;2023-02-13T15:20:59;2.47;;;2.27;;
9102;SDS011;4587;51.434;6.788;2023-02-13T15:23:27;3.90;;;2.43;;
9102;SDS011;4587;51.434;6.788;2023-02-13T15:26:04;2.50;;;2.30;;
9102;SDS011;4587;51.434;6.788;2023-02-13T15:28:31;2.67;;;2.20;;
9102;SDS011;4587;51.434;6.788;2023-02-13T15:31:03;4.23;;;2.60;;
9102;SDS011;4587;51.434;6.788;2023-02-13T15:33:43;2.87;;;2.30;;
9102;SDS011;4587;51.434;6.788;2023-02-13T15:36:12;3.23;;;2.27;;
9102;SDS011;4587;51.434;6.788;2023-02-13T15:38:45;3.10;;;2.50;;
9102;SDS011;4587;51.434;6.788;2023-02-13T15:41:13;3.07;;;2.30;;
9102;SDS011;4587;51.434;6.788;2023-02-13T15:43:51;3.57;;;2.27;;
9102;SDS011;4587;51.434;6.788;2023-02-13T15:46:28;2.83;;;2.50;;
9102;SDS011;4587;51.434;6.788;2023-02-13T15:48:55;2.77;;;2.57;;
9102;SDS011;4587;51.434;6.788;2023-02-13T15:51:24;2.83;;;2.00;;
9102;SDS011;4587;51.434;6.788;2023-02-13T15:56:16;4.23;;;2.50;;
9102;SDS011;4587;51.434;6.788;2023-02-13T15:58:42;2.60;;;2.10;;
9102;SDS011;4587;51.434;6.788;2023-02-13T16:01:08;3.23;;;2.50;;
9102;SDS011;4587;51.434;6.788;2023-02-13T16:03:34;3.63;;;2.40;;
9102;SDS011;4587;51.434;6.788;2023-02-13T16:06:02;3.37;;;2.20;;
9102;SDS011;4587;51.434;6.788;2023-02-13T16:08:31;3.07;;;2.30;;
9102;SDS011;4587;51.434;6.788;2023-02-13T16:11:16;2.10;;;1.90;;
9102;SDS011;4587;51.434;6.788;2023-02-13T16:14:02;2.77;;;2.30;;
9102;SDS011;4587;51.434;6.788;2023-02-13T16:16:51;7.73;;;2.40;;
9102;SDS011;4587;51.434;6.788;2023-02-13T16:19:30;3.00;;;2.20;;
9102;SDS011;4587;51.434;6.788;2023-02-13T16:25:05;2.37;;;2.10;;
9102;SDS011;4587;51.434;6.788;2023-02-13T16:27:34;2.20;;;2.00;;
9102;SDS011;4587;51.434;6.788;2023-02-13T16:30:02;2.13;;;1.90;;
9102;SDS011;4587;51.434;6.788;2023-02-13T16:32:31;2.57;;;2.10;;
9102;SDS011;4587;51.434;6.788;2023-02-13T16:35:24;2.53;;;2.23;;
9102;SDS011;4587;51.434;6.788;2023-02-13T16:37:55;2.83;;;2.10;;
9102;SDS011;4587;51.434;6.788;2023-02-13T16:46:39;2.80;;;2.20;;
9102;SDS011;4587;51.434;6.788;2023-02-13T16:51:46;2.90;;;2.23;;
9102;SDS011;4587;51.434;6.788;2023-02-13T16:59:41;3.03;;;2.17;;
9102;SDS011;4587;51.434;6.788;2023-02-13T17:07:21;7.70;;;3.57;;
9102;SDS011;4587;51.434;6.788;2023-02-13T17:09:59;7.97;;;4.10;;
9102;SDS011;4587;51.434;6.788;2023-02-13T17:12:42;5.77;;;3.90;;
9102;SDS011;4587;51.434;6.788;2023-02-13T17:15:15;10.57;;;4.37;;
9102;SDS011;4587;51.434;6.788;2023-02-13T17:17:44;4.93;;;3.40;;
9102;SDS011;4587;51.434;6.788;2023-02-13T17:20:14;9.80;;;3.63;;
9102;SDS011;4587;51.434;6.788;2023-02-13T17:22:42;6.90;;;3.50;;
9102;SDS011;4587;51.434;6.788;2023-02-13T17:25:20;7.33;;;3.80;;
9102;SDS011;4587;51.434;6.788;2023-02-13T17:27:48;9.80;;;3.73;;
9102;SDS011;4587;51.434;6.788;2023-02-13T17:30:16;7.67;;;3.77;;
9102;SDS011;4587;51.434;6.788;2023-02-13T17:32:44;6.87;;;4.27;;
9102;SDS011;4587;51.434;6.788;2023-02-13T17:35:11;7.67;;;4.80;;
9102;SDS011;4587;51.434;6.788;2023-02-13T17:37:38;9.63;;;4.33;;
9102;SDS011;4587;51.434;6.788;2023-02-13T17:40:05;13.83;;;5.50;;
9102;SDS011;4587;51.434;6.788;2023-02-13T17:42:31;15.20;;;6.53;;
9102;SDS011;4587;51.434;6.788;2023-02-13T17:44:57;11.57;;;6.67;;
9102;SDS011;4587;51.434;6.788;2023-02-13T17:47:23;8.40;;;5.77;;
9102;SDS011;4587;51.434;6.788;2023-02-13T17:49:50;8.80;;;6.50;;
9102;SDS011;4587;51.434;6.788;2023-02-13T17:52:18;11.07;;;6.60;;
9102;SDS011;4587;51.434;6.788;2023-02-13T17:54:45;12.73;;;7.30;;
9102;SDS011;4587;51.434;6.788;2023-02-13T17:57:12;9.00;;;6.67;;
9102;SDS011;4587;51.434;6.788;2023-02-13T17:59:38;12.67;;;7.03;;
9102;SDS011;4587;51.434;6.788;2023-02-13T18:02:17;10.80;;;7.03;;
9102;SDS011;4587;51.434;6.788;2023-02-13T18:04:47;8.43;;;6.73;;
9102;SDS011;4587;51.434;6.788;2023-02-13T18:07:15;11.90;;;6.87;;
9102;SDS011;4587;51.434;6.788;2023-02-13T18:09:42;11.37;;;7.10;;
9102;SDS011;4587;51.434;6.788;2023-02-13T18:12:11;10.57;;;6.90;;
9102;SDS011;4587;51.434;6.788;2023-02-13T18:14:38;10.80;;;6.17;;
9102;SDS011;4587;51.434;6.788;2023-02-13T18:17:03;12.23;;;7.20;;
9102;SDS011;4587;51.434;6.788;2023-02-13T18:19:29;12.33;;;6.90;;
9102;SDS011;4587;51.434;6.788;2023-02-13T18:21:55;10.00;;;6.27;;
9102;SDS011;4587;51.434;6.788;2023-02-13T18:24:20;11.17;;;6.53;;
9102;SDS011;4587;51.434;6.788;2023-02-13T18:26:46;9.33;;;6.40;;